sensor_id;sensor_type;location;lat;lon;timestamp;pressure;altitude;pressure_sealevel;temperature;humidity
54816;BME280;40715;55.752;37.884;2022-11-15T00:01:15;99616.91;;;5.48;32.94
54816;BME280;40715;55.752;37.884;2022-11-15T00:03:51;99606.44;;;5.52;32.77
54816;BME280;40715;55.752;37.884;2022-11-15T00:06:18;99608.19;;;5.55;32.69
54816;BME280;40715;55.752;37.884;2022-11-15T00:08:47;99615.16;;;5.56;32.67
54816;BME280;40715;55.752;37.884;2022-11-15T00:11:14;99602.97;;;5.52;32.76
54816;BME280;40715;55.752;37.884;2022-11-15T00:13:41;99610.78;;;5.55;32.97
54816;BME280;40715;55.752;37.884;2022-11-15T00:16:11;99600.34;;;5.50;32.90
54816;BME280;40715;55.752;37.884;2022-11-15T00:18:38;99609.94;;;5.56;32.69
54816;BME280;40715;55.752;37.884;2022-11-15T00:21:15;99606.44;;;5.52;33.11
54816;BME280;40715;55.752;37.884;2022-11-15T00:23:48;99599.47;;;5.50;32.77
54816;BME280;40715;55.752;37.884;2022-11-15T00:26:15;99601.19;;;5.57;32.75
54816;BME280;40715;55.752;37.884;2022-11-15T00:28:42;99594.25;;;5.53;32.80
54816;BME280;40715;55.752;37.884;2022-11-15T00:31:11;99596.88;;;5.56;32.69
54816;BME280;40715;55.752;37.884;2022-11-15T00:33:39;99590.78;;;5.59;32.80
54816;BME280;40715;55.752;37.884;2022-11-15T00:36:08;99596.84;;;5.62;32.80
54816;BME280;40715;55.752;37.884;2022-11-15T00:38:40;99593.38;;;5.62;33.13
54816;BME280;40715;55.752;37.884;2022-11-15T00:41:10;99595.09;;;5.63;32.82
54816;BME280;40715;55.752;37.884;2022-11-15T00:43:37;99570.72;;;5.51;32.90
54816;BME280;40715;55.752;37.884;2022-11-15T00:46:06;99582.94;;;5.59;33.15
54816;BME280;40715;55.752;37.884;2022-11-15T00:48:39;99586.41;;;5.59;33.12
54816;BME280;40715;55.752;37.884;2022-11-15T00:51:06;99574.22;;;5.49;32.87
54816;BME280;40715;55.752;37.884;2022-11-15T00:53:33;99589.84;;;5.61;32.86
54816;BME280;40715;55.752;37.884;2022-11-15T00:56:03;99568.13;;;5.53;32.89
54816;BME280;40715;55.752;37.884;2022-11-15T00:58:30;99576.78;;;5.63;32.94
54816;BME280;40715;55.752;37.884;2022-11-15T01:01:06;99548.94;;;5.51;32.95
54816;BME280;40715;55.752;37.884;2022-11-15T01:03:34;99566.34;;;5.57;33.05
54816;BME280;40715;55.752;37.884;2022-11-15T01:06:02;99568.09;;;5.61;33.13
54816;BME280;40715;55.752;37.884;2022-11-15T01:08:29;99569.84;;;5.60;32.72
54816;BME280;40715;55.752;37.884;2022-11-15T01:11:04;99576.78;;;5.60;32.94
54816;BME280;40715;55.752;37.884;2022-11-15T01:13:32;99562.88;;;5.58;32.74
54816;BME280;40715;55.752;37.884;2022-11-15T01:16:07;99562.00;;;5.59;32.75
54816;BME280;40715;55.752;37.884;2022-11-15T01:18:35;99566.34;;;5.58;32.80
54816;BME280;40715;55.752;37.884;2022-11-15T01:21:11;99568.09;;;5.59;32.97
54816;BME280;40715;55.752;37.884;2022-11-15T01:23:41;99546.34;;;5.48;33.08
54816;BME280;40715;55.752;37.884;2022-11-15T01:26:11;99561.13;;;5.57;32.88
54816;BME280;40715;55.752;37.884;2022-11-15T01:28:41;99554.16;;;5.52;33.11
54816;BME280;40715;55.752;37.884;2022-11-15T01:31:16;99553.28;;;5.57;32.76
54816;BME280;40715;55.752;37.884;2022-11-15T01:33:44;99549.81;;;5.56;32.92
54816;BME280;40715;55.752;37.884;2022-11-15T01:36:18;99531.56;;;5.42;32.68
54816;BME280;40715;55.752;37.884;2022-11-15T01:38:45;99539.38;;;5.50;32.96
54816;BME280;40715;55.752;37.884;2022-11-15T01:41:18;99541.13;;;5.49;33.01
54816;BME280;40715;55.752;37.884;2022-11-15T01:43:49;99543.72;;;5.49;32.97
54816;BME280;40715;55.752;37.884;2022-11-15T01:48:53;99549.81;;;5.48;32.85
54816;BME280;40715;55.752;37.884;2022-11-15T01:51:24;99545.50;;;5.47;33.11
54816;BME280;40715;55.752;37.884;2022-11-15T01:53:55;99533.31;;;5.42;32.71
54816;BME280;40715;55.752;37.884;2022-11-15T01:56:26;99537.66;;;5.47;33.13
54816;BME280;40715;55.752;37.884;2022-11-15T01:58:57;99502.84;;;5.27;33.13
54816;BME280;40715;55.752;37.884;2022-11-15T02:01:28;99528.94;;;5.44;32.93
54816;BME280;40715;55.752;37.884;2022-11-15T02:04:01;99528.09;;;5.35;32.84
54816;BME280;40715;55.752;37.884;2022-11-15T02:06:30;99509.84;;;5.26;32.87
54816;BME280;40715;55.752;37.884;2022-11-15T02:09:00;99531.59;;;5.36;32.69
54816;BME280;40715;55.752;37.884;2022-11-15T02:11:28;99522.88;;;5.29;32.84
54816;BME280;40715;55.752;37.884;2022-11-15T02:13:56;99531.59;;;5.34;33.01
54816;BME280;40715;55.752;37.884;2022-11-15T02:22:13;99534.19;;;5.28;33.24
54816;BME280;40715;55.752;37.884;2022-11-15T02:24:54;99540.28;;;5.38;32.71
54816;BME280;40715;55.752;37.884;2022-11-15T02:30:20;99528.97;;;5.28;32.83
54816;BME280;40715;55.752;37.884;2022-11-15T02:33:19;99528.97;;;5.30;32.90
54816;BME280;40715;55.752;37.884;2022-11-15T02:38:52;99518.53;;;5.24;32.74
54816;BME280;40715;55.752;37.884;2022-11-15T02:41:30;99526.38;;;5.24;33.08
54816;BME280;40715;55.752;37.884;2022-11-15T02:44:04;99522.03;;;5.23;32.84
54816;BME280;40715;55.752;37.884;2022-11-15T02:46:43;99524.66;;;5.19;32.99
54816;BME280;40715;55.752;37.884;2022-11-15T02:49:34;99511.63;;;5.12;32.98
54816;BME280;40715;55.752;37.884;2022-11-15T02:52:03;99516.81;;;5.16;32.78
54816;BME280;40715;55.752;37.884;2022-11-15T02:54:34;99508.97;;;5.23;32.95
54816;BME280;40715;55.752;37.884;2022-11-15T02:57:04;99513.31;;;5.27;32.86
54816;BME280;40715;55.752;37.884;2022-11-15T03:04:53;99495.88;;;5.33;33.18
54816;BME280;40715;55.752;37.884;2022-11-15T03:10:08;99489.78;;;5.28;33.00
54816;BME280;40715;55.752;37.884;2022-11-15T03:12:56;99504.56;;;5.37;33.28
54816;BME280;40715;55.752;37.884;2022-11-15T03:15:32;99497.63;;;5.36;33.15
54816;BME280;40715;55.752;37.884;2022-11-15T03:18:19;99491.50;;;5.39;33.17
54816;BME280;40715;55.752;37.884;2022-11-15T03:20:48;99488.03;;;5.38;33.14
54816;BME280;40715;55.752;37.884;2022-11-15T03:23:17;99491.50;;;5.37;33.32
54816;BME280;40715;55.752;37.884;2022-11-15T03:25:49;99486.28;;;5.34;33.37
54816;BME280;40715;55.752;37.884;2022-11-15T03:28:21;99487.16;;;5.41;33.22
54816;BME280;40715;55.752;37.884;2022-11-15T03:30:50;99492.38;;;5.41;33.21
54816;BME280;40715;55.752;37.884;2022-11-15T03:33:19;99498.47;;;5.36;33.47
54816;BME280;40715;55.752;37.884;2022-11-15T03:35:48;99451.50;;;5.21;33.43
54816;BME280;40715;55.752;37.884;2022-11-15T03:38:26;99481.03;;;5.39;33.66
54816;BME280;40715;55.752;37.884;2022-11-15T03:41:01;99491.50;;;5.37;33.32
54816;BME280;40715;55.752;37.884;2022-11-15T03:43:59;99490.63;;;5.38;33.40
54816;BME280;40715;55.752;37.884;2022-11-15T03:46:40;99487.16;;;5.33;33.30
54816;BME280;40715;55.752;37.884;2022-11-15T03:49:15;99491.53;;;5.29;33.42
54816;BME280;40715;55.752;37.884;2022-11-15T03:51:44;99497.63;;;5.30;33.31
54816;BME280;40715;55.752;37.884;2022-11-15T03:54:12;99484.59;;;5.19;33.49
54816;BME280;40715;55.752;37.884;2022-11-15T03:56:39;99503.75;;;5.27;33.69
54816;BME280;40715;55.752;37.884;2022-11-15T03:59:06;99508.06;;;5.30;33.70
54816;BME280;40715;55.752;37.884;2022-11-15T04:01:33;99482.84;;;5.23;33.55
54816;BME280;40715;55.752;37.884;2022-11-15T04:03:59;99485.47;;;5.21;33.53
54816;BME280;40715;55.752;37.884;2022-11-15T04:06:28;99489.81;;;5.25;33.25
54816;BME280;40715;55.752;37.884;2022-11-15T04:08:57;99469.81;;;5.18;33.63
54816;BME280;40715;55.752;37.884;2022-11-15T04:11:24;99480.22;;;5.23;33.65
54816;BME280;40715;55.752;37.884;2022-11-15T04:13:51;99471.56;;;5.16;33.62
54816;BME280;40715;55.752;37.884;2022-11-15T04:16:18;99460.25;;;5.08;33.36
54816;BME280;40715;55.752;37.884;2022-11-15T04:18:52;99451.56;;;4.99;33.23
54816;BME280;40715;55.752;37.884;2022-11-15T04:21:37;99483.75;;;5.12;33.56
54816;BME280;40715;55.752;37.884;2022-11-15T04:24:28;99475.94;;;5.05;33.52
54816;BME280;40715;55.752;37.884;2022-11-15T04:26:55;99476.81;;;5.04;33.48
54816;BME280;40715;55.752;37.884;2022-11-15T04:29:22;99472.47;;;4.98;33.62
54816;BME280;40715;55.752;37.884;2022-11-15T04:32:06;99473.34;;;4.94;33.22
54816;BME280;40715;55.752;37.884;2022-11-15T04:34:33;99458.56;;;4.83;33.42
54816;BME280;40715;55.752;37.884;2022-11-15T04:37:00;99475.94;;;4.94;33.38
54816;BME280;40715;55.752;37.884;2022-11-15T04:39:40;99479.41;;;4.96;33.46
54816;BME280;40715;55.752;37.884;2022-11-15T04:42:11;99475.09;;;4.95;33.40
54816;BME280;40715;55.752;37.884;2022-11-15T04:44:38;99462.91;;;4.88;33.41
54816;BME280;40715;55.752;37.884;2022-11-15T04:47:07;99449.84;;;4.81;33.68
54816;BME280;40715;55.752;37.884;2022-11-15T04:49:34;99463.75;;;4.96;33.56
54816;BME280;40715;55.752;37.884;2022-11-15T04:52:04;99458.53;;;4.94;33.72
54816;BME280;40715;55.752;37.884;2022-11-15T04:54:30;99457.66;;;4.95;33.66
54816;BME280;40715;55.752;37.884;2022-11-15T04:56:57;99460.28;;;4.97;33.80
54816;BME280;40715;55.752;37.884;2022-11-15T04:59:25;99456.78;;;4.99;33.55
54816;BME280;40715;55.752;37.884;2022-11-15T05:01:52;99456.78;;;5.03;33.50
54816;BME280;40715;55.752;37.884;2022-11-15T05:04:19;99445.47;;;5.04;33.69
54816;BME280;40715;55.752;37.884;2022-11-15T05:06:51;99448.94;;;5.07;33.59
54816;BME280;40715;55.752;37.884;2022-11-15T05:09:19;99453.28;;;5.07;33.86
54816;BME280;40715;55.752;37.884;2022-11-15T05:11:47;99441.13;;;5.01;33.80
54816;BME280;40715;55.752;37.884;2022-11-15T05:14:14;99450.66;;;5.10;33.69
54816;BME280;40715;55.752;37.884;2022-11-15T05:16:41;99446.31;;;5.09;33.92
54816;BME280;40715;55.752;37.884;2022-11-15T05:19:08;99454.97;;;5.20;33.62
54816;BME280;40715;55.752;37.884;2022-11-15T05:21:36;99439.31;;;5.17;33.82
54816;BME280;40715;55.752;37.884;2022-11-15T05:24:09;99450.63;;;5.25;33.90
54816;BME280;40715;55.752;37.884;2022-11-15T05:26:36;99431.50;;;5.14;33.74
54816;BME280;40715;55.752;37.884;2022-11-15T05:29:03;99454.97;;;5.28;33.82
54816;BME280;40715;55.752;37.884;2022-11-15T05:31:33;99437.59;;;5.14;33.91
54816;BME280;40715;55.752;37.884;2022-11-15T05:34:04;99434.97;;;5.14;34.08
54816;BME280;40715;55.752;37.884;2022-11-15T05:36:35;99441.03;;;5.26;33.60
54816;BME280;40715;55.752;37.884;2022-11-15T05:39:05;99436.69;;;5.26;33.86
54816;BME280;40715;55.752;37.884;2022-11-15T05:41:44;99440.16;;;5.30;33.62
54816;BME280;40715;55.752;37.884;2022-11-15T05:44:18;99437.53;;;5.34;33.60
54816;BME280;40715;55.752;37.884;2022-11-15T05:46:47;99433.16;;;5.38;33.61
54816;BME280;40715;55.752;37.884;2022-11-15T05:49:17;99432.31;;;5.38;33.61
54816;BME280;40715;55.752;37.884;2022-11-15T05:51:52;99411.41;;;5.34;33.63
54816;BME280;40715;55.752;37.884;2022-11-15T05:54:21;99418.34;;;5.39;33.70
54816;BME280;40715;55.752;37.884;2022-11-15T05:56:49;99403.59;;;5.28;33.91
54816;BME280;40715;55.752;37.884;2022-11-15T05:59:16;99428.81;;;5.40;33.69
54816;BME280;40715;55.752;37.884;2022-11-15T06:01:44;99423.56;;;5.43;33.98
54816;BME280;40715;55.752;37.884;2022-11-15T06:04:11;99400.94;;;5.31;33.53
54816;BME280;40715;55.752;37.884;2022-11-15T06:06:38;99421.75;;;5.51;33.48
54816;BME280;40715;55.752;37.884;2022-11-15T06:09:05;99405.19;;;5.54;33.70
54816;BME280;40715;55.752;37.884;2022-11-15T06:11:32;99420.81;;;5.68;33.47
54816;BME280;40715;55.752;37.884;2022-11-15T06:13:59;99413.75;;;5.84;33.59
54816;BME280;40715;55.752;37.884;2022-11-15T06:16:26;99398.00;;;5.88;33.83
54816;BME280;40715;55.752;37.884;2022-11-15T06:18:53;99405.78;;;6.04;33.46
54816;BME280;40715;55.752;37.884;2022-11-15T06:21:20;99412.59;;;6.25;33.16
54816;BME280;40715;55.752;37.884;2022-11-15T06:23:47;99405.53;;;6.38;33.54
54816;BME280;40715;55.752;37.884;2022-11-15T06:26:15;99408.84;;;6.55;33.39
54816;BME280;40715;55.752;37.884;2022-11-15T06:28:42;99403.53;;;6.65;32.82
54816;BME280;40715;55.752;37.884;2022-11-15T06:31:10;99409.59;;;6.67;33.18
54816;BME280;40715;55.752;37.884;2022-11-15T06:33:38;99401.72;;;6.71;32.99
54816;BME280;40715;55.752;37.884;2022-11-15T06:36:09;99388.63;;;6.73;33.08
54816;BME280;40715;55.752;37.884;2022-11-15T06:38:43;99389.56;;;6.67;32.60
54816;BME280;40715;55.752;37.884;2022-11-15T06:41:14;99395.69;;;6.65;32.67
54816;BME280;40715;55.752;37.884;2022-11-15T06:43:41;99402.69;;;6.60;33.01
54816;BME280;40715;55.752;37.884;2022-11-15T06:46:10;99387.06;;;6.53;32.97
54816;BME280;40715;55.752;37.884;2022-11-15T06:48:37;99365.44;;;6.36;32.62
54816;BME280;40715;55.752;37.884;2022-11-15T06:51:04;99392.25;;;6.56;32.83
54816;BME280;40715;55.752;37.884;2022-11-15T06:53:31;99392.28;;;6.55;32.78
54816;BME280;40715;55.752;37.884;2022-11-15T06:56:06;99351.50;;;6.31;33.01
54816;BME280;40715;55.752;37.884;2022-11-15T06:58:34;99394.94;;;6.52;32.74
54816;BME280;40715;55.752;37.884;2022-11-15T07:01:04;99390.56;;;6.51;32.60
54816;BME280;40715;55.752;37.884;2022-11-15T07:03:35;99355.00;;;6.28;32.72
54816;BME280;40715;55.752;37.884;2022-11-15T07:06:04;99388.03;;;6.43;32.59
54816;BME280;40715;55.752;37.884;2022-11-15T07:08:33;99373.25;;;6.39;32.72
54816;BME280;40715;55.752;37.884;2022-11-15T07:11:02;99376.69;;;6.44;32.93
54816;BME280;40715;55.752;37.884;2022-11-15T07:13:31;99375.78;;;6.45;32.48
54816;BME280;40715;55.752;37.884;2022-11-15T07:16:05;99365.41;;;6.39;32.65
54816;BME280;40715;55.752;37.884;2022-11-15T07:18:38;99343.75;;;6.23;32.83
54816;BME280;40715;55.752;37.884;2022-11-15T07:21:08;99342.00;;;6.22;32.80
54816;BME280;40715;55.752;37.884;2022-11-15T07:23:39;99360.16;;;6.39;32.74
54816;BME280;40715;55.752;37.884;2022-11-15T07:26:07;99359.22;;;6.45;32.84
54816;BME280;40715;55.752;37.884;2022-11-15T07:28:37;99361.84;;;6.46;32.58
54816;BME280;40715;55.752;37.884;2022-11-15T07:31:06;99346.16;;;6.43;32.88
54816;BME280;40715;55.752;37.884;2022-11-15T07:33:33;99348.69;;;6.52;32.58
54816;BME280;40715;55.752;37.884;2022-11-15T07:36:05;99343.47;;;6.51;32.37
54816;BME280;40715;55.752;37.884;2022-11-15T07:38:33;99357.31;;;6.62;32.66
54816;BME280;40715;55.752;37.884;2022-11-15T07:41:06;99340.84;;;6.49;32.62
54816;BME280;40715;55.752;37.884;2022-11-15T07:43:33;99317.50;;;6.31;32.61
54816;BME280;40715;55.752;37.884;2022-11-15T07:46:08;99330.56;;;6.31;32.63
54816;BME280;40715;55.752;37.884;2022-11-15T07:48:45;99326.22;;;6.33;32.55
54816;BME280;40715;55.752;37.884;2022-11-15T07:51:14;99346.25;;;6.34;32.78
54816;BME280;40715;55.752;37.884;2022-11-15T07:53:43;99322.97;;;6.04;32.50
54816;BME280;40715;55.752;37.884;2022-11-15T07:56:10;99315.38;;;5.70;32.72
54816;BME280;40715;55.752;37.884;2022-11-15T07:58:37;99339.66;;;5.83;33.18
54816;BME280;40715;55.752;37.884;2022-11-15T08:01:11;99335.31;;;5.84;32.94
54816;BME280;40715;55.752;37.884;2022-11-15T08:03:43;99332.66;;;5.90;32.73
54816;BME280;40715;55.752;37.884;2022-11-15T08:06:13;99304.03;;;5.75;32.99
54816;BME280;40715;55.752;37.884;2022-11-15T08:08:40;99335.34;;;5.79;33.00
54816;BME280;40715;55.752;37.884;2022-11-15T08:11:07;99335.41;;;5.73;32.87
54816;BME280;40715;55.752;37.884;2022-11-15T08:13:34;99333.63;;;5.75;33.42
54816;BME280;40715;55.752;37.884;2022-11-15T08:16:02;99331.81;;;5.86;33.00
54816;BME280;40715;55.752;37.884;2022-11-15T08:18:32;99323.88;;;5.94;32.92
54816;BME280;40715;55.752;37.884;2022-11-15T08:21:00;99304.78;;;5.87;32.92
54816;BME280;40715;55.752;37.884;2022-11-15T08:23:28;99336.84;;;6.11;33.06
54816;BME280;40715;55.752;37.884;2022-11-15T08:26:00;99319.47;;;6.09;32.93
54816;BME280;40715;55.752;37.884;2022-11-15T08:28:27;99324.63;;;6.15;32.93
54816;BME280;40715;55.752;37.884;2022-11-15T08:30:55;99332.38;;;6.26;32.80
54816;BME280;40715;55.752;37.884;2022-11-15T08:33:22;99327.94;;;6.34;32.76
54816;BME280;40715;55.752;37.884;2022-11-15T08:35:50;99303.50;;;6.35;33.18
54816;BME280;40715;55.752;37.884;2022-11-15T08:38:26;99313.81;;;6.50;33.22
54816;BME280;40715;55.752;37.884;2022-11-15T08:41:01;99316.28;;;6.61;33.01
54816;BME280;40715;55.752;37.884;2022-11-15T08:43:28;99288.38;;;6.62;32.85
54816;BME280;40715;55.752;37.884;2022-11-15T08:45:56;99304.13;;;6.59;32.79
54816;BME280;40715;55.752;37.884;2022-11-15T08:48:23;99288.56;;;6.46;32.81
54816;BME280;40715;55.752;37.884;2022-11-15T08:50:54;99296.97;;;6.74;32.94
54816;BME280;40715;55.752;37.884;2022-11-15T08:53:22;99280.34;;;6.77;32.50
54816;BME280;40715;55.752;37.884;2022-11-15T08:55:48;99287.19;;;6.87;32.59
54816;BME280;40715;55.752;37.884;2022-11-15T08:58:17;99287.09;;;6.95;32.60
54816;BME280;40715;55.752;37.884;2022-11-15T09:00:44;99286.19;;;6.98;32.36
54816;BME280;40715;55.752;37.884;2022-11-15T09:03:11;99284.28;;;7.09;32.50
54816;BME280;40715;55.752;37.884;2022-11-15T09:05:38;99288.50;;;7.21;32.76
54816;BME280;40715;55.752;37.884;2022-11-15T09:08:05;99260.56;;;7.20;32.88
54816;BME280;40715;55.752;37.884;2022-11-15T09:10:52;99287.28;;;7.43;32.92
54816;BME280;40715;55.752;37.884;2022-11-15T09:13:21;99281.00;;;7.54;32.69
54816;BME280;40715;55.752;37.884;2022-11-15T09:15:48;99273.97;;;7.57;32.45
54816;BME280;40715;55.752;37.884;2022-11-15T09:18:15;99262.78;;;7.48;32.50
54816;BME280;40715;55.752;37.884;2022-11-15T09:20:42;99284.38;;;7.62;32.43
54816;BME280;40715;55.752;37.884;2022-11-15T09:23:09;99273.88;;;7.64;32.60
54816;BME280;40715;55.752;37.884;2022-11-15T09:25:36;99273.00;;;7.65;32.68
54816;BME280;40715;55.752;37.884;2022-11-15T09:28:06;99266.06;;;7.60;32.47
54816;BME280;40715;55.752;37.884;2022-11-15T09:30:34;99275.47;;;7.72;32.31
54816;BME280;40715;55.752;37.884;2022-11-15T09:33:10;99261.44;;;7.76;32.34
54816;BME280;40715;55.752;37.884;2022-11-15T09:35:40;99270.19;;;7.77;32.09
54816;BME280;40715;55.752;37.884;2022-11-15T09:38:07;99267.63;;;7.74;32.25
54816;BME280;40715;55.752;37.884;2022-11-15T09:40:37;99259.84;;;7.66;32.07
54816;BME280;40715;55.752;37.884;2022-11-15T09:49:04;99259.00;;;7.06;31.83
54816;BME280;40715;55.752;37.884;2022-11-15T09:57:26;99254.78;;;6.25;32.32
54816;BME280;40715;55.752;37.884;2022-11-15T10:05:19;99251.06;;;6.44;32.85
54816;BME280;40715;55.752;37.884;2022-11-15T10:08:11;99237.00;;;6.53;32.94
54816;BME280;40715;55.752;37.884;2022-11-15T10:10:49;99236.88;;;6.64;32.90
54816;BME280;40715;55.752;37.884;2022-11-15T10:13:39;99217.78;;;6.57;32.66
54816;BME280;40715;55.752;37.884;2022-11-15T10:16:21;99232.50;;;6.64;32.22
54816;BME280;40715;55.752;37.884;2022-11-15T10:24:19;99209.34;;;6.32;32.96
54816;BME280;40715;55.752;37.884;2022-11-15T10:26:50;99141.66;;;6.02;33.02
54816;BME280;40715;55.752;37.884;2022-11-15T10:29:20;99204.91;;;6.37;32.77
54816;BME280;40715;55.752;37.884;2022-11-15T10:31:52;99194.53;;;6.29;33.08
54816;BME280;40715;55.752;37.884;2022-11-15T10:34:23;99184.16;;;6.23;32.62
54816;BME280;40715;55.752;37.884;2022-11-15T10:36:56;99187.56;;;6.28;32.92
54816;BME280;40715;55.752;37.884;2022-11-15T10:39:24;99187.44;;;6.41;32.80
54816;BME280;40715;55.752;37.884;2022-11-15T10:41:51;99164.06;;;6.25;33.20
54816;BME280;40715;55.752;37.884;2022-11-15T10:44:26;99196.34;;;6.26;32.90
54816;BME280;40715;55.752;37.884;2022-11-15T10:49:25;99186.19;;;5.93;33.39
54816;BME280;40715;55.752;37.884;2022-11-15T10:56:56;99169.63;;;5.93;33.57
54816;BME280;40715;55.752;37.884;2022-11-15T10:59:27;99159.16;;;5.97;33.10
54816;BME280;40715;55.752;37.884;2022-11-15T11:01:58;99181.69;;;6.09;33.68
54816;BME280;40715;55.752;37.884;2022-11-15T11:04:25;99177.34;;;6.08;33.66
54816;BME280;40715;55.752;37.884;2022-11-15T11:06:54;99173.94;;;6.01;33.43
54816;BME280;40715;55.752;37.884;2022-11-15T11:12:04;99163.63;;;5.81;33.51
54816;BME280;40715;55.752;37.884;2022-11-15T11:14:35;99148.91;;;5.77;33.73
54816;BME280;40715;55.752;37.884;2022-11-15T11:20:00;99147.91;;;5.87;34.00
54816;BME280;40715;55.752;37.884;2022-11-15T11:33:47;99139.50;;;5.56;34.01
54816;BME280;40715;55.752;37.884;2022-11-15T11:36:39;99090.88;;;5.41;33.96
54816;BME280;40715;55.752;37.884;2022-11-15T11:39:45;99126.28;;;5.70;34.25
54816;BME280;40715;55.752;37.884;2022-11-15T11:42:18;99128.00;;;5.73;34.23
54816;BME280;40715;55.752;37.884;2022-11-15T11:50:37;99112.47;;;5.57;34.27
54816;BME280;40715;55.752;37.884;2022-11-15T11:55:53;99102.22;;;5.40;34.34
54816;BME280;40715;55.752;37.884;2022-11-15T11:58:32;99113.59;;;5.34;34.60
54816;BME280;40715;55.752;37.884;2022-11-15T12:01:12;99116.22;;;5.30;34.84
54816;BME280;40715;55.752;37.884;2022-11-15T12:03:44;99117.09;;;5.32;34.98
54816;BME280;40715;55.752;37.884;2022-11-15T12:09:13;99113.56;;;5.38;35.09
54816;BME280;40715;55.752;37.884;2022-11-15T12:11:57;99106.66;;;5.32;35.10
54816;BME280;40715;55.752;37.884;2022-11-15T12:16:58;99109.50;;;5.03;35.81
54816;BME280;40715;55.752;37.884;2022-11-15T12:19:25;99109.75;;;4.67;36.49
54816;BME280;40715;55.752;37.884;2022-11-15T12:22:03;99107.34;;;4.35;37.75
54816;BME280;40715;55.752;37.884;2022-11-15T12:27:42;99097.19;;;3.67;39.44
54816;BME280;40715;55.752;37.884;2022-11-15T12:30:17;99096.34;;;3.49;40.35
54816;BME280;40715;55.752;37.884;2022-11-15T12:32:55;99096.38;;;3.41;40.73
54816;BME280;40715;55.752;37.884;2022-11-15T12:35:37;99090.34;;;3.21;41.86
54816;BME280;40715;55.752;37.884;2022-11-15T12:38:09;99099.03;;;2.97;42.20
54816;BME280;40715;55.752;37.884;2022-11-15T12:40:38;99107.69;;;2.88;42.14
54816;BME280;40715;55.752;37.884;2022-11-15T12:46:12;99099.00;;;2.64;43.87
54816;BME280;40715;55.752;37.884;2022-11-15T12:51:07;99091.22;;;2.63;43.94
54816;BME280;40715;55.752;37.884;2022-11-15T12:53:34;99091.22;;;2.80;43.72
54816;BME280;40715;55.752;37.884;2022-11-15T13:11:57;99050.44;;;3.06;43.46
54816;BME280;40715;55.752;37.884;2022-11-15T13:17:36;99051.28;;;3.16;43.41
54816;BME280;40715;55.752;37.884;2022-11-15T13:20:14;99052.19;;;3.14;43.69
54816;BME280;40715;55.752;37.884;2022-11-15T13:22:58;99054.75;;;3.09;43.91
54816;BME280;40715;55.752;37.884;2022-11-15T13:25:52;99042.63;;;3.06;44.13
54816;BME280;40715;55.752;37.884;2022-11-15T13:28:37;99040.03;;;3.03;43.95
54816;BME280;40715;55.752;37.884;2022-11-15T13:31:37;99046.09;;;2.99;44.12
54816;BME280;40715;55.752;37.884;2022-11-15T13:34:30;99040.91;;;2.94;44.19
54816;BME280;40715;55.752;37.884;2022-11-15T13:39:49;99040.03;;;2.86;44.32
54816;BME280;40715;55.752;37.884;2022-11-15T13:42:19;99020.09;;;2.87;44.56
54816;BME280;40715;55.752;37.884;2022-11-15T13:44:58;99020.94;;;2.93;44.62
54816;BME280;40715;55.752;37.884;2022-11-15T13:47:27;99035.69;;;2.94;44.93
54816;BME280;40715;55.752;37.884;2022-11-15T13:49:57;99031.38;;;2.95;45.00
54816;BME280;40715;55.752;37.884;2022-11-15T13:52:28;99032.22;;;2.99;44.85
54816;BME280;40715;55.752;37.884;2022-11-15T13:55:24;99020.94;;;2.93;45.15
54816;BME280;40715;55.752;37.884;2022-11-15T13:57:54;99023.56;;;2.89;45.13
54816;BME280;40715;55.752;37.884;2022-11-15T14:03:24;99019.22;;;3.02;45.17
54816;BME280;40715;55.752;37.884;2022-11-15T14:08:30;99019.22;;;2.88;45.34
54816;BME280;40715;55.752;37.884;2022-11-15T14:11:17;99014.03;;;2.85;46.05
54816;BME280;40715;55.752;37.884;2022-11-15T14:14:08;99020.09;;;2.93;45.93
54816;BME280;40715;55.752;37.884;2022-11-15T14:16:59;99008.84;;;2.91;45.84
54816;BME280;40715;55.752;37.884;2022-11-15T14:25:12;99010.56;;;2.81;46.12
54816;BME280;40715;55.752;37.884;2022-11-15T14:27:43;99012.28;;;2.76;46.70
54816;BME280;40715;55.752;37.884;2022-11-15T14:30:15;99006.25;;;2.72;46.59
54816;BME280;40715;55.752;37.884;2022-11-15T14:32:46;99009.72;;;2.67;46.79
54816;BME280;40715;55.752;37.884;2022-11-15T14:35:19;98994.97;;;2.61;47.07
54816;BME280;40715;55.752;37.884;2022-11-15T14:37:46;98997.56;;;2.64;46.93
54816;BME280;40715;55.752;37.884;2022-11-15T14:40:16;98984.56;;;2.61;46.97
54816;BME280;40715;55.752;37.884;2022-11-15T14:42:45;98988.03;;;2.65;47.30
54816;BME280;40715;55.752;37.884;2022-11-15T14:45:22;98950.75;;;2.50;47.09
54816;BME280;40715;55.752;37.884;2022-11-15T14:47:49;98981.06;;;2.78;47.10
54816;BME280;40715;55.752;37.884;2022-11-15T14:50:18;98988.88;;;2.76;47.28
54816;BME280;40715;55.752;37.884;2022-11-15T14:52:47;98981.09;;;2.73;47.49
54816;BME280;40715;55.752;37.884;2022-11-15T14:55:33;98976.75;;;2.63;47.79
54816;BME280;40715;55.752;37.884;2022-11-15T14:58:06;98957.69;;;2.51;47.97
54816;BME280;40715;55.752;37.884;2022-11-15T15:00:38;98979.38;;;2.64;47.80
54816;BME280;40715;55.752;37.884;2022-11-15T15:03:06;98973.31;;;2.64;47.93
54816;BME280;40715;55.752;37.884;2022-11-15T15:05:39;98947.31;;;2.48;47.80
54816;BME280;40715;55.752;37.884;2022-11-15T15:08:07;98971.56;;;2.61;48.30
54816;BME280;40715;55.752;37.884;2022-11-15T15:10:43;98966.38;;;2.58;48.64
54816;BME280;40715;55.752;37.884;2022-11-15T15:15:42;98958.56;;;2.49;48.43
54816;BME280;40715;55.752;37.884;2022-11-15T15:18:08;98921.28;;;2.25;48.73
54816;BME280;40715;55.752;37.884;2022-11-15T15:20:39;98929.97;;;2.32;48.97
54816;BME280;40715;55.752;37.884;2022-11-15T15:23:15;98963.75;;;2.47;48.83
54816;BME280;40715;55.752;37.884;2022-11-15T15:25:42;98954.22;;;2.40;49.13
54816;BME280;40715;55.752;37.884;2022-11-15T15:28:10;98944.69;;;2.33;49.05
54816;BME280;40715;55.752;37.884;2022-11-15T15:30:37;98936.88;;;2.22;49.60